Terminal Aerodrome Forecast
Issued by NWS

Home | Current Version | Previous Version | Text Only | Print | Product List | Glossary On
Versions: 1 2 3 4 5 6 7 8 9 10 11 12
000
FTUS41 KCAR 222300
TAFFVE
TAF
KFVE 222335Z 2300/2324 24010KT P6SM SCT250
     FM231400 21010G18KT P6SM SCT040 BKN120 OVC200
     FM231600 23012G20KT 6SM SHRA VCTS SCT025 BKN035CB OVC100=

USA.gov is the U.S. government's official web portal to all federal, state and local government web resources and services.